Bitola, Macedonia
Current Conditions -  °F | °C
As of 2:30 PM on Friday 21 Nov 2014 (Local Time) from LWOH Reporting Station
Clear Clear  
Wind Chill: 52°   Ceiling: Unl
Heat Index: 52°   Visibility: 6mi
Dew Point: 30°   Wind: 2mph
Humidity: 44%   Direction: 140°SE
Pressure: 30.12"   Gusts: NA
Location:  41.04°N, 21.34°E
Report Text: LWOH 211230Z 14002KT CAVOK 11/M01 Q1020
Loading
Personal Weather Stations






























Interactive Weather Map New forecast layout! Learn more

10-Day Weather Forecast

Advertisements
Track Severe Weather on mobile